Time;durP1;ratioP1;P1;durP2;ratioP2;P2;SDS_P1;SDS_P2;PMS_P1;PMS_P2;Temp;Humidity;BMP_temperature;BMP_pressure;BME280_temperature;BME280_humidity;BME280_pressure;Samples;Min_cycle;Max_cycle;Signal;HPM_P1;HPM_P2
2021/08/09 00:02:22;;;;;;;0.10;0.10;;;;;;;24.48;55.02;100108.47;5049575;28;20041;-55
2021/08/09 00:05:08;;;;;;;0.10;0.10;;;;;;;24.44;55.07;100103.66;5050037;28;20053;-55
2021/08/09 00:07:54;;;;;;;0.35;0.35;;;;;;;24.48;55.01;100105.81;5049791;28;20093;-55
2021/08/09 00:10:40;;;;;;;0.10;0.10;;;;;;;24.47;55.08;100108.66;5049829;28;20068;-56
2021/08/09 00:13:25;;;;;;;0.57;0.32;;;;;;;24.46;55.16;100115.00;5048329;28;20041;-55
2021/08/09 00:16:11;;;;;;;0.10;0.10;;;;;;;24.36;55.12;100089.28;5049678;28;20517;-56
2021/08/09 00:18:57;;;;;;;0.40;0.40;;;;;;;24.41;55.23;100112.00;5049786;28;20037;-56
2021/08/09 00:21:43;;;;;;;0.20;0.20;;;;;;;24.41;55.16;100117.34;5048502;28;20200;-54
2021/08/09 00:24:28;;;;;;;0.30;0.30;;;;;;;24.36;55.21;100096.47;5048232;28;20049;-56
2021/08/09 00:43:38;;;;;;;0.10;0.10;;;;;;;24.31;55.42;100104.97;5103931;28;20135;-56
2021/08/09 00:46:04;;;;;;;0.25;0.25;;;;;;;24.33;55.44;100110.16;5109860;28;20047;-56
2021/08/09 00:48:34;;;;;;;0.28;0.28;;;;;;;24.20;55.55;100091.13;5091315;28;20425;-56
2021/08/09 00:51:02;;;;;;;0.10;0.10;;;;;;;24.32;55.45;100116.47;5091789;28;20047;-56
2021/08/09 00:53:28;;;;;;;0.17;0.17;;;;;;;24.31;55.49;100112.97;5109532;28;20050;-55
2021/08/09 00:55:58;;;;;;;0.55;0.45;;;;;;;24.19;55.48;100092.94;5092359;28;20059;-54
2021/08/09 00:58:25;;;;;;;0.10;0.10;;;;;;;24.20;55.59;100094.63;5091347;28;20491;-56
2021/08/09 01:00:51;;;;;;;0.10;0.10;;;;;;;24.29;55.44;100106.13;5091716;28;20054;-54
2021/08/09 01:03:17;;;;;;;0.22;0.22;;;;;;;24.28;55.54;100101.78;5074643;28;20461;-56
2021/08/09 01:05:48;;;;;;;0.10;0.10;;;;;;;24.27;55.61;100094.81;5091513;28;20138;-56
2021/08/09 01:08:43;;;;;;;0.40;0.40;;;;;;;24.25;55.68;100096.78;5091358;28;20438;-57
2021/08/09 01:11:24;;;;;;;0.17;0.17;;;;;;;24.20;55.79;100081.28;5091568;28;20413;-56
2021/08/09 01:14:14;;;;;;;0.03;0.03;;;;;;;24.24;55.49;100097.81;5091476;28;20062;-57
2021/08/09 01:16:42;;;;;;;0.32;0.32;;;;;;;24.24;55.56;100098.66;5093881;28;20138;-57
2021/08/09 01:19:35;;;;;;;0.10;0.10;;;;;;;24.21;55.47;100090.13;5074995;28;20043;-57
2021/08/09 01:22:13;;;;;;;0.30;0.30;;;;;;;24.24;55.51;100089.78;5077359;28;20054;-57
2021/08/09 01:25:15;;;;;;;0.10;0.10;;;;;;;24.24;55.59;100084.47;5109325;28;20075;-58
2021/08/09 01:27:41;;;;;;;0.10;0.10;;;;;;;24.25;55.53;100096.78;5007563;28;20482;-54
2021/08/09 01:30:08;;;;;;;0.17;0.17;;;;;;;24.25;55.70;100100.28;5094106;28;20440;-56
2021/08/09 01:32:37;;;;;;;0.10;0.10;;;;;;;24.25;55.57;100102.13;5078039;28;20457;-56
2021/08/09 01:35:06;;;;;;;0.10;0.10;;;;;;;24.24;55.52;100105.81;5095150;28;20577;-57
2021/08/09 01:37:38;;;;;;;0.10;0.10;;;;;;;24.18;55.57;100095.81;5078256;28;20046;-56
2021/08/09 01:40:08;;;;;;;0.17;0.17;;;;;;;24.24;55.57;100105.81;5078461;28;20043;-55
2021/08/09 01:42:56;;;;;;;0.20;0.20;;;;;;;24.25;55.50;100108.28;5070679;28;20116;-57
2021/08/09 01:45:42;;;;;;;0.20;0.20;;;;;;;24.23;55.49;100093.44;5083893;28;20130;-55
2021/08/09 01:48:28;;;;;;;0.10;0.10;;;;;;;24.21;55.70;100096.28;5097658;28;20108;-56
2021/08/09 01:51:15;;;;;;;0.20;0.20;;;;;;;24.20;55.63;100099.13;5097933;28;20059;-54
2021/08/09 01:54:02;;;;;;;0.17;0.17;;;;;;;24.23;55.61;100106.81;5097897;28;20574;-52
2021/08/09 01:56:48;;;;;;;0.22;0.22;;;;;;;24.23;55.51;100101.47;5097685;28;20082;-53
2021/08/09 01:59:34;;;;;;;0.10;0.10;;;;;;;24.22;55.51;100103.28;5097471;28;20051;-54
2021/08/09 02:02:30;;;;;;;0.40;0.40;;;;;;;24.25;55.42;100110.13;5083396;28;20047;-53
2021/08/09 02:05:18;;;;;;;0.10;0.10;;;;;;;24.19;55.50;100094.78;5097552;28;20044;-55
2021/08/09 02:08:11;;;;;;;0.10;0.10;;;;;;;24.21;55.47;100100.81;5071265;28;20054;-53
2021/08/09 02:11:11;;;;;;;0.50;0.50;;;;;;;24.24;55.38;100111.16;5083402;28;20040;-53
2021/08/09 02:13:59;;;;;;;0.68;0.60;;;;;;;24.18;55.22;100109.16;5069621;28;20054;-55
2021/08/09 02:17:22;;;;;;;0.10;0.10;;;;;;;24.29;55.21;100132.81;5083510;28;20055;-57
2021/08/09 02:20:31;;;;;;;0.15;0.15;;;;;;;24.30;55.23;100137.16;5080806;28;20035;-54
2021/08/09 02:23:19;;;;;;;0.17;0.17;;;;;;;24.15;55.12;100107.63;5096925;28;20044;-58
2021/08/09 02:26:05;;;;;;;0.10;0.10;;;;;;;24.30;55.13;100140.69;5097293;28;20121;-56
2021/08/09 02:28:51;;;;;;;0.57;0.57;;;;;;;24.26;54.75;100139.34;5083023;28;20083;-56
2021/08/09 02:31:38;;;;;;;0.10;0.10;;;;;;;24.30;54.94;100142.50;5083026;28;20130;-56
2021/08/09 02:34:26;;;;;;;0.10;0.10;;;;;;;24.36;54.87;100137.34;5082939;28;20052;-55
2021/08/09 02:37:13;;;;;;;0.40;0.40;;;;;;;24.48;54.48;100140.50;5069294;28;20074;-54
2021/08/09 02:40:01;;;;;;;0.20;0.20;;;;;;;24.55;54.06;100140.69;5096664;28;20050;-55
2021/08/09 02:42:48;;;;;;;0.20;0.20;;;;;;;24.57;54.24;100144.03;5048673;28;20052;-56
2021/08/09 02:45:34;;;;;;;0.10;0.10;;;;;;;24.62;53.91;100145.19;5090384;28;20086;-56
2021/08/09 02:48:20;;;;;;;0.25;0.25;;;;;;;24.67;53.75;100134.84;5062525;28;20067;-54
2021/08/09 02:51:05;;;;;;;0.10;0.10;;;;;;;24.78;53.74;100150.53;5062481;28;20044;-54
2021/08/09 02:53:51;;;;;;;0.20;0.20;;;;;;;24.88;53.17;100153.06;5048625;28;20099;-55
2021/08/09 02:56:38;;;;;;;0.30;0.30;;;;;;;24.86;53.10;100134.53;5076043;28;20399;-56
2021/08/09 02:59:23;;;;;;;0.20;0.20;;;;;;;24.78;53.26;100126.50;5083753;28;20056;-57
2021/08/09 03:02:10;;;;;;;0.43;0.43;;;;;;;24.83;53.31;100145.56;5075960;28;20505;-55
2021/08/09 03:04:56;;;;;;;0.20;0.20;;;;;;;24.83;53.34;100145.56;5076305;28;20063;-56
2021/08/09 03:07:43;;;;;;;0.00;0.00;;;;;;;24.82;53.35;100138.56;5089890;28;20055;-56
2021/08/09 03:10:30;;;;;;;0.20;0.20;;;;;;;24.83;53.26;100144.72;5048429;28;20098;-56
2021/08/09 03:13:25;;;;;;;0.55;0.52;;;;;;;24.87;53.22;100146.03;5090984;28;20063;-56
2021/08/09 03:16:12;;;;;;;0.85;0.55;;;;;;;24.88;53.28;100151.22;5062289;28;20105;-54
2021/08/09 03:18:58;;;;;;;0.10;0.10;;;;;;;24.95;53.05;100147.88;5089826;28;20123;-53
2021/08/09 03:21:58;;;;;;;0.10;0.10;;;;;;;24.99;52.85;100152.72;5075487;28;20130;-52
2021/08/09 03:24:44;;;;;;;0.10;0.10;;;;;;;25.02;52.89;100151.53;5075412;28;20046;-54
2021/08/09 03:27:30;;;;;;;0.00;0.00;;;;;;;25.04;52.76;100169.06;5090452;28;20060;-53
2021/08/09 03:30:18;;;;;;;0.13;0.13;;;;;;;25.12;52.51;100160.22;5090839;28;20046;-52
2021/08/09 03:33:04;;;;;;;0.20;0.20;;;;;;;25.27;52.13;100154.00;5075543;28;20467;-53
2021/08/09 03:35:52;;;;;;;0.17;0.17;;;;;;;25.79;50.75;100159.69;5075552;28;20052;-55
2021/08/09 03:38:38;;;;;;;0.57;0.57;;;;;;;26.57;48.71;100158.75;5075095;28;20566;-53
2021/08/09 03:41:25;;;;;;;0.20;0.20;;;;;;;27.29;46.85;100163.44;5075325;28;20514;-53
2021/08/09 03:44:10;;;;;;;0.28;0.28;;;;;;;27.80;45.67;100159.03;5075184;28;20040;-53
2021/08/09 03:46:57;;;;;;;0.30;0.30;;;;;;;28.16;44.86;100142.13;5061595;28;20482;-54
2021/08/09 03:49:42;;;;;;;0.35;0.35;;;;;;;28.37;44.32;100155.59;5090111;28;20131;-54
2021/08/09 03:52:28;;;;;;;0.20;0.20;;;;;;;28.55;43.92;100161.34;5074238;28;20509;-54
2021/08/09 03:55:14;;;;;;;0.25;0.25;;;;;;;28.91;43.37;100148.66;5075194;28;20047;-54
2021/08/09 03:58:00;;;;;;;0.30;0.30;;;;;;;29.36;42.52;100154.56;5090348;28;20142;-55
2021/08/09 04:00:46;;;;;;;0.20;0.20;;;;;;;29.65;41.66;100150.78;5089846;28;20131;-55
2021/08/09 04:03:32;;;;;;;0.30;0.30;;;;;;;29.87;41.13;100149.69;5074614;28;20109;-54
2021/08/09 04:06:18;;;;;;;0.20;0.20;;;;;;;29.98;40.78;100138.31;5074836;28;20127;-55
2021/08/09 04:09:07;;;;;;;0.30;0.30;;;;;;;30.24;40.09;100145.63;5089949;28;20098;-53
2021/08/09 04:11:54;;;;;;;0.30;0.30;;;;;;;30.48;39.83;100154.00;5074969;28;20040;-53
2021/08/09 04:14:39;;;;;;;0.40;0.40;;;;;;;30.70;39.19;100161.91;5089712;28;20050;-54
2021/08/09 04:17:25;;;;;;;0.30;0.30;;;;;;;30.80;38.88;100154.22;5072621;28;20052;-57
2021/08/09 04:20:12;;;;;;;0.30;0.30;;;;;;;30.89;38.78;100158.41;5088965;28;20062;-55
2021/08/09 04:22:58;;;;;;;0.40;0.40;;;;;;;31.06;38.07;100158.81;5074821;28;20051;-54
2021/08/09 04:25:44;;;;;;;0.35;0.35;;;;;;;31.24;38.02;100164.41;5088412;28;20044;-55
2021/08/09 04:28:30;;;;;;;0.32;0.32;;;;;;;31.35;37.66;100163.75;5088431;28;20052;-54
2021/08/09 04:31:18;;;;;;;0.40;0.40;;;;;;;31.45;37.55;100161.44;5088776;28;20509;-54
2021/08/09 04:34:05;;;;;;;0.20;0.20;;;;;;;31.53;37.39;100163.13;5061013;28;20061;-54
2021/08/09 04:36:51;;;;;;;0.60;0.60;;;;;;;31.75;36.98;100156.38;5074651;28;20071;-56
2021/08/09 04:39:37;;;;;;;0.40;0.40;;;;;;;31.92;36.57;100153.00;5074230;28;20056;-55
2021/08/09 04:42:24;;;;;;;0.30;0.30;;;;;;;32.10;36.20;100148.78;5081399;28;20147;-55
2021/08/09 04:45:10;;;;;;;0.22;0.22;;;;;;;32.24;35.97;100150.34;5094800;28;20039;-54
2021/08/09 04:47:57;;;;;;;0.30;0.30;;;;;;;32.30;35.57;100134.09;5080662;28;20063;-54
2021/08/09 04:50:43;;;;;;;0.38;0.38;;;;;;;32.48;35.26;100141.47;5094503;28;20047;-54
2021/08/09 04:53:29;;;;;;;0.30;0.30;;;;;;;32.59;34.86;100142.69;5109761;28;20051;-56
2021/08/09 04:56:16;;;;;;;0.38;0.38;;;;;;;32.71;34.72;100151.72;5109955;28;20131;-54
2021/08/09 04:59:02;;;;;;;0.20;0.20;;;;;;;32.78;34.41;100139.81;5094766;28;20044;-55
2021/08/09 05:01:48;;;;;;;0.30;0.30;;;;;;;32.90;34.34;100145.31;5094329;28;20664;-54
2021/08/09 05:04:34;;;;;;;0.30;0.30;;;;;;;33.00;34.28;100153.75;5097702;28;20402;-54
2021/08/09 05:07:20;;;;;;;0.28;0.28;;;;;;;33.08;33.72;100150.78;5098614;28;20055;-53
2021/08/09 05:10:07;;;;;;;0.30;0.30;;;;;;;33.14;34.08;100140.97;5098700;28;20046;-54
2021/08/09 05:12:54;;;;;;;0.28;0.28;;;;;;;33.25;33.44;100148.34;5098428;28;20040;-54
2021/08/09 05:15:41;;;;;;;0.43;0.43;;;;;;;33.29;33.41;100150.38;5098401;28;20065;-54
2021/08/09 05:18:27;;;;;;;0.40;0.40;;;;;;;33.38;33.25;100149.03;5113586;28;20502;-55
2021/08/09 05:21:16;;;;;;;0.77;0.77;;;;;;;33.40;33.11;100151.53;5113652;28;20412;-54
2021/08/09 05:24:02;;;;;;;0.50;0.50;;;;;;;33.46;33.36;100142.50;5084484;28;20043;-55
2021/08/09 05:26:48;;;;;;;0.28;0.28;;;;;;;33.51;32.91;100148.03;5097926;28;20059;-54
2021/08/09 05:29:34;;;;;;;0.20;0.20;;;;;;;33.57;33.19;100128.19;5113118;28;20135;-55
2021/08/09 05:32:20;;;;;;;0.50;0.50;;;;;;;33.66;32.65;100145.00;5113424;28;20047;-55
2021/08/09 05:35:09;;;;;;;0.70;0.70;;;;;;;33.65;32.58;100122.50;5113371;28;20047;-54
2021/08/09 05:37:55;;;;;;;0.35;0.35;;;;;;;33.77;32.66;100139.63;5113146;28;20056;-54
2021/08/09 05:40:41;;;;;;;0.20;0.20;;;;;;;33.78;32.93;100133.16;5083714;28;20053;-55
2021/08/09 05:43:27;;;;;;;0.45;0.45;;;;;;;33.84;32.74;100139.53;5112950;28;20051;-55
2021/08/09 05:46:13;;;;;;;0.35;0.35;;;;;;;33.89;32.51;100140.53;5113015;28;20113;-55
2021/08/09 05:49:04;;;;;;;0.40;0.40;;;;;;;33.80;32.59;100125.63;5097930;28;20055;-55
2021/08/09 05:51:50;;;;;;;0.20;0.20;;;;;;;33.90;32.35;100125.91;5097388;28;20134;-54
2021/08/09 05:54:36;;;;;;;0.28;0.28;;;;;;;33.90;32.17;100093.38;5097325;28;20523;-54
2021/08/09 05:57:22;;;;;;;0.45;0.45;;;;;;;34.01;32.18;100108.88;5097782;28;20050;-56
2021/08/09 06:00:08;;;;;;;0.20;0.20;;;;;;;34.14;32.23;100116.03;5097623;28;20053;-57
2021/08/09 06:03:18;;;;;;;0.50;0.50;;;;;;;34.03;32.16;100098.63;5097521;28;20059;-55
2021/08/09 06:06:19;;;;;;;0.40;0.40;;;;;;;34.24;32.02;100126.31;5097369;28;20083;-56
2021/08/09 06:09:10;;;;;;;0.30;0.30;;;;;;;34.24;31.66;100129.84;5097296;28;20090;-55
2021/08/09 06:11:56;;;;;;;0.20;0.20;;;;;;;34.28;31.62;100132.94;5097263;28;20073;-55
2021/08/09 06:14:42;;;;;;;0.30;0.30;;;;;;;34.49;31.37;100135.09;5096542;28;20083;-55
2021/08/09 06:17:27;;;;;;;0.50;0.50;;;;;;;34.85;30.75;100124.06;5112428;28;20054;-56
2021/08/09 06:20:14;;;;;;;0.93;0.55;;;;;;;35.40;29.99;100129.16;5097310;28;20039;-53
2021/08/09 06:23:00;;;;;;;0.30;0.30;;;;;;;38.29;26.05;100124.53;5083036;28;20036;-56
2021/08/09 06:25:46;;;;;;;0.55;0.55;;;;;;;41.78;21.31;100118.13;5096832;28;20063;-55
2021/08/09 06:28:33;;;;;;;1.00;1.00;;;;;;;44.32;18.16;100123.47;5112098;28;20105;-56
2021/08/09 06:31:23;;;;;;;0.80;0.80;;;;;;;45.51;16.73;100109.75;5097148;28;20044;-56
2021/08/09 06:34:09;;;;;;;0.77;0.77;;;;;;;46.32;15.96;100110.66;5096937;28;20040;-55
2021/08/09 06:36:56;;;;;;;0.60;0.60;;;;;;;46.34;15.71;100106.44;5096670;28;20052;-56
2021/08/09 06:39:43;;;;;;;0.60;0.60;;;;;;;46.13;16.09;100096.22;5082633;28;20043;-56
2021/08/09 06:42:30;;;;;;;0.43;0.43;;;;;;;46.16;15.99;100090.06;5096725;28;20191;-56
2021/08/09 06:45:30;;;;;;;0.60;0.60;;;;;;;46.05;15.97;100101.31;5096889;28;20051;-58
2021/08/09 06:48:16;;;;;;;0.60;0.60;;;;;;;43.31;18.79;100100.06;5096598;28;20079;-55
2021/08/09 06:50:43;;;;;;;0.20;0.20;;;;;;;40.19;22.44;100098.63;5093369;28;20051;-56
2021/08/09 06:53:09;;;;;;;0.20;0.20;;;;;;;37.99;25.28;100071.34;5093566;28;20062;-55
2021/08/09 06:55:38;;;;;;;0.30;0.30;;;;;;;36.88;27.00;100088.97;5093291;28;20421;-55
2021/08/09 06:58:04;;;;;;;1.45;1.00;;;;;;;36.03;28.36;100088.31;5093516;28;20047;-57
2021/08/09 07:00:30;;;;;;;0.30;0.30;;;;;;;35.51;29.35;100095.69;5111619;28;20052;-56
2021/08/09 07:02:56;;;;;;;0.30;0.30;;;;;;;35.12;29.93;100096.47;5093184;28;20051;-55
2021/08/09 07:05:23;;;;;;;0.25;0.25;;;;;;;34.81;30.41;100101.22;5076726;28;20328;-56
2021/08/09 07:08:10;;;;;;;0.88;0.88;;;;;;;34.54;30.92;100106.22;5111338;28;20256;-55
2021/08/09 07:10:57;;;;;;;0.45;0.45;;;;;;;34.27;31.53;100104.16;5095899;28;20069;-54
2021/08/09 07:13:44;;;;;;;0.30;0.30;;;;;;;34.14;32.02;100109.75;5095831;28;20394;-56
2021/08/09 07:16:31;;;;;;;0.25;0.25;;;;;;;33.96;32.14;100107.91;5111282;28;20108;-55
2021/08/09 07:19:19;;;;;;;0.30;0.30;;;;;;;33.86;32.51;100105.75;5082522;28;20054;-55
2021/08/09 07:58:09;;;;;;;0.10;0.10;;;;;;;32.69;34.42;100076.19;5148493;27;20370;-65
2021/08/09 08:00:37;;;;;;;0.30;0.30;;;;;;;32.68;34.82;100088.09;5129939;27;20034;-65
2021/08/09 08:03:04;;;;;;;0.20;0.20;;;;;;;32.60;34.75;100087.50;5129901;27;20039;-65
2021/08/09 08:05:30;;;;;;;0.13;0.13;;;;;;;32.43;35.05;100071.81;5129672;27;20035;-65
2021/08/09 08:07:57;;;;;;;0.10;0.10;;;;;;;32.35;35.41;100080.22;5129887;27;20061;-65
2021/08/09 08:10:24;;;;;;;0.10;0.10;;;;;;;32.28;35.60;100084.00;5129688;27;20042;-65
2021/08/09 08:12:51;;;;;;;0.22;0.22;;;;;;;32.19;35.60;100088.03;5129764;27;20087;-65
2021/08/09 08:15:18;;;;;;;0.10;0.10;;;;;;;32.09;36.02;100093.06;5129837;27;20035;-64
2021/08/09 08:17:44;;;;;;;0.10;0.10;;;;;;;32.01;36.01;100086.00;5129341;27;20038;-64
2021/08/09 08:20:12;;;;;;;0.10;0.10;;;;;;;31.92;36.24;100088.16;5129781;27;20603;-64
2021/08/09 08:22:38;;;;;;;0.40;0.40;;;;;;;31.78;36.50;100086.56;5129228;27;20110;-64
2021/08/09 08:25:06;;;;;;;0.10;0.10;;;;;;;31.73;36.55;100088.25;5129744;27;20035;-64
2021/08/09 08:27:34;;;;;;;0.10;0.10;;;;;;;31.68;36.47;100090.75;5129035;27;20035;-65
2021/08/09 08:30:01;;;;;;;0.20;0.20;;;;;;;31.60;36.69;100086.47;5147830;27;20097;-63
2021/08/09 08:32:47;;;;;;;0.10;0.10;;;;;;;31.44;37.10;100068.00;5132062;27;20041;-63
2021/08/09 08:35:32;;;;;;;0.10;0.10;;;;;;;31.45;36.97;100081.28;5147582;27;20095;-64
2021/08/09 08:38:19;;;;;;;1.75;0.60;;;;;;;31.37;37.11;100088.78;5132413;27;20620;-62
2021/08/09 08:41:05;;;;;;;0.20;0.20;;;;;;;31.23;37.30;100076.38;5147604;27;20042;-62
2021/08/09 08:43:52;;;;;;;0.20;0.20;;;;;;;31.23;37.58;100087.16;5132000;27;20137;-62
2021/08/09 08:46:41;;;;;;;0.20;0.20;;;;;;;31.14;37.53;100078.50;5131822;27;20043;-61
2021/08/09 08:49:27;;;;;;;0.10;0.10;;;;;;;31.09;37.74;100090.94;5118244;27;20558;-62
2021/08/09 08:52:15;;;;;;;0.10;0.10;;;;;;;30.99;37.94;100084.13;5131962;27;20035;-62
2021/08/09 08:55:02;;;;;;;0.13;0.13;;;;;;;30.93;38.22;100095.72;5132227;27;20088;-65
2021/08/09 08:57:49;;;;;;;0.10;0.10;;;;;;;30.88;38.39;100098.22;5140923;27;20047;-65
2021/08/09 09:00:36;;;;;;;0.10;0.10;;;;;;;30.91;38.11;100091.56;5118116;27;20425;-66
2021/08/09 09:03:23;;;;;;;0.13;0.13;;;;;;;30.93;37.96;100087.63;5133338;27;20043;-65
2021/08/09 09:06:10;;;;;;;0.52;0.22;;;;;;;30.81;38.25;100083.91;5118331;27;20047;-65
2021/08/09 09:08:56;;;;;;;0.10;0.10;;;;;;;30.89;38.19;100091.78;5118152;27;20116;-63
2021/08/09 09:11:42;;;;;;;0.35;0.35;;;;;;;30.86;38.15;100078.72;5132932;27;20058;-63
2021/08/09 09:14:30;;;;;;;0.20;0.20;;;;;;;30.81;38.61;100078.53;5133102;27;20277;-63
2021/08/09 09:17:30;;;;;;;0.10;0.10;;;;;;;30.75;38.47;100081.22;5133223;27;20043;-62
2021/08/09 09:20:26;;;;;;;0.10;0.10;;;;;;;30.59;38.84;100079.78;5105621;27;20414;-63
2021/08/09 09:23:14;;;;;;;0.10;0.10;;;;;;;30.48;39.13;100091.19;5117592;27;20112;-62
2021/08/09 09:26:00;;;;;;;0.20;0.20;;;;;;;30.40;39.08;100080.59;5133018;27;20552;-62
2021/08/09 09:28:46;;;;;;;0.10;0.10;;;;;;;30.40;39.35;100083.28;5117583;27;20062;-63
2021/08/09 09:31:32;;;;;;;0.20;0.20;;;;;;;30.45;39.20;100080.81;5132678;27;20649;-63
2021/08/09 09:34:20;;;;;;;0.20;0.20;;;;;;;30.59;38.93;100078.97;5132864;27;20126;-62
2021/08/09 09:37:06;;;;;;;0.25;0.25;;;;;;;30.63;38.67;100074.81;5132790;27;20204;-62
2021/08/09 09:40:36;;;;;;;0.25;0.25;;;;;;;30.73;38.67;100078.72;5132527;27;20047;-63
2021/08/09 09:43:22;;;;;;;0.10;0.10;;;;;;;30.73;38.39;100075.19;5132457;27;20412;-63
2021/08/09 09:46:09;;;;;;;0.40;0.40;;;;;;;30.65;38.80;100076.25;5132513;27;20107;-63
2021/08/09 09:49:38;;;;;;;0.10;0.10;;;;;;;30.58;38.90;100075.44;5117248;27;20043;-63
2021/08/09 09:52:35;;;;;;;0.15;0.15;;;;;;;30.51;39.08;100074.59;5132471;27;20035;-63
2021/08/09 09:55:21;;;;;;;0.30;0.30;;;;;;;30.45;39.20;100067.34;5117160;27;20047;-62
2021/08/09 09:58:07;;;;;;;0.10;0.10;;;;;;;30.35;39.23;100062.34;5131975;27;20049;-63
2021/08/09 10:00:55;;;;;;;0.10;0.10;;;;;;;30.34;39.40;100067.91;5132137;27;20047;-62
2021/08/09 10:04:18;;;;;;;0.13;0.13;;;;;;;30.27;39.58;100067.91;5132025;27;20132;-63
2021/08/09 10:07:43;;;;;;;0.10;0.10;;;;;;;30.22;39.80;100059.63;5132003;27;20046;-63
2021/08/09 10:10:29;;;;;;;0.10;0.10;;;;;;;30.15;39.77;100061.47;5116103;27;20120;-63
2021/08/09 10:13:24;;;;;;;0.10;0.10;;;;;;;30.16;39.80;100068.53;5116964;27;20054;-63
2021/08/09 10:16:13;;;;;;;0.15;0.15;;;;;;;30.12;39.83;100067.28;5132146;27;20121;-61
2021/08/09 10:18:59;;;;;;;0.00;0.00;;;;;;;30.11;40.10;100064.78;5132016;27;20438;-62
2021/08/09 10:21:45;;;;;;;0.20;0.20;;;;;;;30.05;40.03;100068.28;5102347;27;20097;-62
2021/08/09 10:24:41;;;;;;;0.20;0.20;;;;;;;30.08;39.95;100078.66;5131772;27;20051;-62
2021/08/09 10:27:57;;;;;;;0.10;0.10;;;;;;;30.05;39.98;100071.00;5131643;27;20047;-62
2021/08/09 10:30:42;;;;;;;0.10;0.10;;;;;;;30.05;40.06;100071.00;5116216;27;20081;-61
2021/08/09 10:34:01;;;;;;;0.10;0.10;;;;;;;30.02;40.45;100068.72;5131596;27;20475;-61
2021/08/09 10:37:08;;;;;;;0.10;0.10;;;;;;;30.02;39.96;100076.78;5089677;27;20054;-61
2021/08/09 10:40:01;;;;;;;0.40;0.40;;;;;;;29.99;40.05;100072.66;5131581;27;20138;-61
2021/08/09 10:42:57;;;;;;;0.10;0.10;;;;;;;29.95;40.18;100061.44;5131299;27;20055;-60
2021/08/09 10:45:48;;;;;;;0.00;0.00;;;;;;;29.98;40.17;100066.44;5131078;27;20048;-61
2021/08/09 10:48:44;;;;;;;0.28;0.28;;;;;;;29.96;40.14;100071.19;5130964;27;20051;-61
2021/08/09 10:51:52;;;;;;;0.10;0.10;;;;;;;29.95;40.26;100060.63;5101934;27;20039;-60
2021/08/09 10:54:38;;;;;;;0.13;0.13;;;;;;;29.88;40.30;100059.78;5130995;27;20068;-62
2021/08/09 10:57:43;;;;;;;0.20;0.20;;;;;;;29.92;40.25;100061.84;5101454;27;20051;-60
2021/08/09 11:00:38;;;;;;;0.00;0.00;;;;;;;29.91;40.17;100054.81;5115899;27;20053;-61
2021/08/09 11:03:23;;;;;;;0.20;0.20;;;;;;;29.90;40.30;100055.88;5130993;27;20042;-62
2021/08/09 11:06:51;;;;;;;0.17;0.17;;;;;;;29.90;40.18;100058.56;5131138;27;20055;-60
2021/08/09 11:09:40;;;;;;;0.10;0.10;;;;;;;29.88;40.23;100052.53;5131012;27;20414;-60
2021/08/09 11:12:28;;;;;;;0.30;0.30;;;;;;;29.84;40.46;100051.25;5130902;27;20557;-60
2021/08/09 11:15:16;;;;;;;0.08;0.08;;;;;;;29.83;40.11;100044.25;5088906;27;20313;-60
2021/08/09 11:18:02;;;;;;;0.00;0.00;;;;;;;29.86;40.26;100054.59;5130835;27;20047;-59
2021/08/09 11:20:50;;;;;;;0.10;0.10;;;;;;;29.82;40.20;100047.94;5130426;27;20043;-60
2021/08/09 11:23:45;;;;;;;0.10;0.10;;;;;;;29.74;40.35;100037.34;5115348;27;20039;-60
2021/08/09 11:26:35;;;;;;;0.10;0.10;;;;;;;29.81;40.53;100050.84;5102627;27;20176;-60
2021/08/09 11:29:21;;;;;;;0.10;0.10;;;;;;;29.84;40.42;100059.34;5130525;27;20556;-60
2021/08/09 11:32:07;;;;;;;0.25;0.25;;;;;;;29.81;40.59;100048.94;5130674;27;20047;-60
2021/08/09 11:35:00;;;;;;;0.40;0.40;;;;;;;29.80;40.43;100049.16;5130530;27;20099;-60
2021/08/09 11:37:56;;;;;;;0.17;0.17;;;;;;;29.68;40.52;100023.88;5130235;27;20124;-60
2021/08/09 11:40:49;;;;;;;0.30;0.30;;;;;;;29.79;40.44;100045.63;5130648;27;20179;-60
2021/08/09 11:43:35;;;;;;;0.10;0.10;;;;;;;29.76;40.43;100039.84;5130385;27;20047;-61
2021/08/09 11:46:21;;;;;;;0.20;0.20;;;;;;;29.80;40.50;100039.22;5130403;28;20193;-60
2021/08/09 11:49:08;;;;;;;0.28;0.28;;;;;;;29.75;40.53;100030.91;5115170;28;20043;-60
2021/08/09 11:51:58;;;;;;;0.90;0.73;;;;;;;29.79;40.54;100040.25;5130420;28;20043;-60
2021/08/09 11:54:44;;;;;;;0.10;0.10;;;;;;;29.79;40.57;100031.34;5130486;28;20462;-60
2021/08/09 11:57:39;;;;;;;0.38;0.38;;;;;;;29.78;40.54;100038.59;5130040;28;20510;-60
2021/08/09 12:00:39;;;;;;;0.10;0.10;;;;;;;29.78;40.62;100046.66;5115187;28;20044;-59
2021/08/09 12:03:27;;;;;;;0.10;0.10;;;;;;;29.77;40.69;100042.34;5130457;28;20130;-61
2021/08/09 12:06:23;;;;;;;0.13;0.13;;;;;;;29.79;40.60;100034.88;5115669;28;20154;-60
2021/08/09 12:09:12;;;;;;;0.50;0.50;;;;;;;29.71;40.56;100024.28;5130787;28;20400;-61
2021/08/09 12:12:04;;;;;;;0.17;0.17;;;;;;;29.78;40.47;100041.28;5130055;28;20507;-60
2021/08/09 12:15:02;;;;;;;0.30;0.30;;;;;;;29.73;40.51;100032.16;5114900;28;20419;-61
2021/08/09 12:18:04;;;;;;;0.17;0.17;;;;;;;29.77;40.65;100031.56;5129894;28;20116;-61
2021/08/09 12:21:13;;;;;;;0.25;0.25;;;;;;;29.75;40.65;100027.41;5130061;28;20065;-60
2021/08/09 12:23:59;;;;;;;0.10;0.10;;;;;;;29.65;40.77;100021.56;5101820;28;20039;-60
2021/08/09 12:26:45;;;;;;;0.47;0.47;;;;;;;29.72;40.50;100028.63;5129872;28;20775;-60
2021/08/09 12:29:31;;;;;;;0.10;0.10;;;;;;;29.73;40.67;100033.00;5114833;28;20051;-60
2021/08/09 12:32:17;;;;;;;0.20;0.20;;;;;;;29.72;40.61;100031.34;5115032;27;20035;-61
2021/08/09 12:35:04;;;;;;;0.10;0.10;;;;;;;29.72;40.62;100033.19;5133948;27;20054;-60
2021/08/09 12:37:54;;;;;;;0.10;0.10;;;;;;;29.63;40.72;100018.25;5133571;27;20051;-63
2021/08/09 12:40:40;;;;;;;0.20;0.20;;;;;;;29.73;40.68;100035.69;5133745;27;20039;-64
2021/08/09 12:43:26;;;;;;;0.10;0.10;;;;;;;29.72;40.53;100038.56;5133592;27;20083;-64
2021/08/09 12:46:12;;;;;;;0.30;0.30;;;;;;;29.68;40.63;100027.38;5133624;27;20473;-63
2021/08/09 12:48:58;;;;;;;0.20;0.20;;;;;;;29.71;40.63;100032.34;5133532;27;20051;-63
2021/08/09 12:51:43;;;;;;;0.20;0.20;;;;;;;29.70;40.88;100033.41;5133169;27;20031;-62
2021/08/09 12:54:30;;;;;;;0.65;0.65;;;;;;;29.64;40.92;100031.53;5118383;27;20067;-63
2021/08/09 12:57:16;;;;;;;0.03;0.03;;;;;;;29.60;40.80;100027.56;5118457;27;20414;-63
2021/08/09 13:00:06;;;;;;;0.10;0.10;;;;;;;29.67;40.75;100024.91;5133294;27;20473;-63
2021/08/09 13:02:52;;;;;;;0.10;0.10;;;;;;;29.72;40.72;100023.25;5133226;27;20069;-63
2021/08/09 13:05:38;;;;;;;0.03;0.03;;;;;;;29.75;40.63;100022.00;5104156;27;20050;-62
2021/08/09 13:08:24;;;;;;;0.22;0.22;;;;;;;29.72;40.67;100017.88;5133262;27;20039;-64
2021/08/09 13:11:09;;;;;;;0.35;0.28;;;;;;;29.71;40.81;100012.69;5133474;27;20043;-64
2021/08/09 13:13:55;;;;;;;0.10;0.10;;;;;;;29.69;40.65;100012.91;5117635;27;20485;-65
2021/08/09 13:16:41;;;;;;;0.50;0.50;;;;;;;29.67;40.77;100006.91;5133123;27;20047;-65
2021/08/09 13:19:28;;;;;;;0.50;0.50;;;;;;;29.66;40.72;100013.31;5133003;27;20055;-64
2021/08/09 13:31:28;;;;;;;0.10;0.10;;;;;;;29.58;41.04;100008.09;5133168;27;20092;-65
2021/08/09 13:34:13;;;;;;;0.17;0.17;;;;;;;29.56;41.08;100018.25;5133070;27;20043;-65
2021/08/09 13:37:00;;;;;;;0.30;0.30;;;;;;;29.52;41.03;100006.22;5132693;27;20455;-63
2021/08/09 13:39:45;;;;;;;0.20;0.20;;;;;;;29.56;41.00;100006.63;5132460;27;20053;-64
2021/08/09 13:42:31;;;;;;;0.10;0.10;;;;;;;29.49;40.92;99995.84;5117513;27;20027;-63
2021/08/09 13:45:17;;;;;;;0.10;0.10;;;;;;;29.55;41.10;100000.44;5132583;27;20473;-65
2021/08/09 13:48:03;;;;;;;0.20;0.20;;;;;;;29.51;41.08;100001.88;5132155;27;20095;-64
2021/08/09 13:50:49;;;;;;;0.10;0.10;;;;;;;29.49;41.17;100009.31;5132544;27;20047;-64
2021/08/09 13:53:34;;;;;;;0.10;0.10;;;;;;;29.45;41.04;100005.34;5132458;27;20078;-63
2021/08/09 13:56:20;;;;;;;0.28;0.28;;;;;;;29.36;41.44;100002.03;5132311;27;20043;-62